Time;durP1;ratioP1;P1;durP2;ratioP2;P2;SDS_P1;SDS_P2;PMS_P1;PMS_P2;Temp;Humidity;BMP_temperature;BMP_pressure;BME280_temperature;BME280_humidity;BME280_pressure;Samples;Min_cycle;Max_cycle;Signal;HPM_P1;HPM_P2
2023/06/08 09:13:33;;;;;;;16.57;10.47;;;22.10;92.10;;;;;;5068205;28;20561;-71
2023/06/08 09:16:10;;;;;;;11.10;10.10;;;22.10;91.20;;;;;;5039403;28;20450;-71
2023/06/08 09:18:37;;;;;;;13.40;9.60;;;22.30;91.10;;;;;;5051277;28;20926;-70
2023/06/08 09:21:23;;;;;;;10.90;9.90;;;22.50;90.20;;;;;;5049673;28;20421;-71
2023/06/08 09:24:18;;;;;;;10.93;9.60;;;22.60;90.70;;;;;;5048402;28;20429;-72
2023/06/08 09:26:50;;;;;;;10.97;9.97;;;22.90;89.80;;;;;;5046269;28;20402;-72
2023/06/08 09:29:39;;;;;;;11.37;10.30;;;23.00;90.40;;;;;;5047885;28;20901;-71
2023/06/08 09:32:16;;;;;;;11.77;10.20;;;23.10;88.40;;;;;;5047994;28;20973;-71
2023/06/08 09:35:01;;;;;;;12.47;11.20;;;23.20;88.90;;;;;;5064145;28;21098;-71
2023/06/08 09:37:32;;;;;;;10.83;9.83;;;23.40;87.70;;;;;;5035575;28;20411;-73
2023/06/08 09:40:00;;;;;;;11.50;10.37;;;23.50;87.40;;;;;;5048023;28;20395;-72
2023/06/08 09:42:44;;;;;;;12.00;10.23;;;23.60;86.10;;;;;;5048339;28;20927;-73
2023/06/08 09:45:14;;;;;;;11.77;10.60;;;23.60;86.40;;;;;;5050834;28;20454;-73
2023/06/08 09:47:42;;;;;;;12.10;11.00;;;23.70;86.40;;;;;;5066727;28;20410;-71
2023/06/08 09:50:09;;;;;;;11.67;10.57;;;23.70;86.20;;;;;;5057719;28;20477;-71
2023/06/08 09:52:38;;;;;;;13.17;11.10;;;23.50;86.70;;;;;;5061920;28;21032;-73
2023/06/08 09:55:05;;;;;;;12.30;11.30;;;23.50;86.60;;;;;;5049362;28;21253;-71
2023/06/08 09:57:37;;;;;;;12.50;11.47;;;23.50;86.20;;;;;;5029122;28;20430;-72
2023/06/08 10:00:15;;;;;;;14.77;11.50;;;23.40;86.40;;;;;;5029409;28;20804;-72
2023/06/08 10:02:50;;;;;;;13.77;10.83;;;23.50;85.80;;;;;;5025488;28;20534;-72
2023/06/08 10:05:26;;;;;;;12.40;11.20;;;23.50;86.40;;;;;;5062967;28;20522;-74
2023/06/08 10:07:58;;;;;;;12.63;11.30;;;23.70;84.40;;;;;;5065040;28;20456;-70
2023/06/08 10:10:34;;;;;;;11.67;9.90;;;23.80;84.70;;;;;;5053736;28;20519;-74
2023/06/08 10:13:03;;;;;;;11.93;10.70;;;23.80;85.00;;;;;;5064660;28;20501;-73
2023/06/08 10:15:31;;;;;;;12.27;10.93;;;23.90;85.00;;;;;;5043483;28;20536;-73
2023/06/08 10:17:59;;;;;;;12.40;11.03;;;24.00;85.10;;;;;;5023142;28;20423;-72
2023/06/08 10:20:27;;;;;;;12.47;10.97;;;24.10;84.80;;;;;;5026853;28;20486;-73
2023/06/08 10:22:56;;;;;;;14.63;13.07;;;24.20;85.00;;;;;;5022498;28;20489;-70
2023/06/08 10:25:28;;;;;;;16.13;11.10;;;24.30;83.30;;;;;;5028671;28;20974;-70
2023/06/08 10:27:54;;;;;;;12.83;11.60;;;24.30;82.30;;;;;;5043205;28;20830;-73
2023/06/08 10:30:39;;;;;;;11.73;10.53;;;24.40;82.90;;;;;;5046185;28;20533;-74
2023/06/08 10:33:16;;;;;;;11.90;10.80;;;24.50;82.80;;;;;;5051238;28;20442;-72
2023/06/08 10:36:19;;;;;;;11.27;10.10;;;24.50;83.20;;;;;;5035743;28;20538;-73
2023/06/08 10:38:56;;;;;;;12.67;11.00;;;24.70;82.50;;;;;;5003073;28;20424;-72
2023/06/08 10:41:46;;;;;;;11.60;10.40;;;24.80;82.10;;;;;;5034704;28;20415;-71
2023/06/08 10:44:25;;;;;;;13.57;12.27;;;24.90;82.20;;;;;;5043585;28;20444;-74
2023/06/08 10:47:14;;;;;;;12.10;10.80;;;24.90;81.00;;;;;;5032940;28;20913;-72
2023/06/08 10:49:45;;;;;;;15.40;10.80;;;24.90;81.50;;;;;;5034388;28;20434;-72
2023/06/08 10:52:22;;;;;;;11.90;10.90;;;24.90;84.60;;;;;;5034326;28;21009;-72
2023/06/08 10:54:57;;;;;;;12.67;11.47;;;25.00;84.00;;;;;;5047531;28;20443;-73
2023/06/08 10:57:53;;;;;;;10.93;9.83;;;25.10;85.30;;;;;;5034499;28;20789;-73
2023/06/08 11:00:24;;;;;;;12.30;11.00;;;25.20;83.00;;;;;;5033632;28;20455;-72
2023/06/08 11:03:04;;;;;;;13.93;11.00;;;25.30;82.70;;;;;;5039799;28;20420;-74
2023/06/08 11:05:33;;;;;;;12.30;11.00;;;25.30;82.20;;;;;;5035209;28;20490;-73
2023/06/08 11:08:02;;;;;;;11.97;10.77;;;25.40;81.00;;;;;;5049906;28;20476;-71
2023/06/08 11:10:32;;;;;;;13.40;11.40;;;25.40;79.80;;;;;;5053828;28;20401;-73
2023/06/08 11:13:08;;;;;;;11.00;10.00;;;25.40;79.20;;;;;;5052189;28;20561;-72
2023/06/08 11:15:43;;;;;;;12.57;10.97;;;25.40;78.50;;;;;;5035841;28;20870;-74
2023/06/08 11:18:12;;;;;;;11.83;10.63;;;25.60;77.60;;;;;;4995931;28;20427;-73
2023/06/08 11:20:42;;;;;;;12.10;10.90;;;25.70;77.60;;;;;;5042393;28;20427;-69
2023/06/08 11:23:10;;;;;;;10.70;9.77;;;25.70;76.10;;;;;;5000918;28;20440;-74
2023/06/08 11:25:37;;;;;;;11.67;10.57;;;25.80;76.50;;;;;;5032411;28;20479;-72
2023/06/08 11:28:07;;;;;;;10.67;9.53;;;25.80;76.80;;;;;;5034751;28;20479;-71
2023/06/08 11:30:36;;;;;;;11.30;10.20;;;25.80;76.10;;;;;;5053364;28;20422;-70
2023/06/08 11:33:08;;;;;;;11.20;9.00;;;25.80;76.50;;;;;;5051944;28;21011;-71
2023/06/08 11:35:34;;;;;;;12.90;11.53;;;25.90;76.10;;;;;;5052304;28;20441;-69
2023/06/08 11:38:03;;;;;;;11.80;10.70;;;25.90;75.00;;;;;;5034320;28;20557;-69
2023/06/08 11:40:41;;;;;;;12.03;10.87;;;26.00;75.60;;;;;;5032098;28;20487;-69
2023/06/08 11:43:10;;;;;;;11.63;10.63;;;26.00;75.10;;;;;;5012385;28;20438;-71
2023/06/08 11:45:39;;;;;;;12.40;10.37;;;26.00;76.50;;;;;;5012232;28;20435;-69
2023/06/08 11:48:06;;;;;;;10.63;9.73;;;26.10;76.10;;;;;;5032010;28;20775;-69
2023/06/08 11:50:34;;;;;;;11.27;10.30;;;26.10;76.30;;;;;;5035055;28;20458;-69
2023/06/08 11:53:06;;;;;;;12.27;11.07;;;26.10;75.40;;;;;;5014272;28;20460;-69
2023/06/08 11:55:38;;;;;;;11.97;11.07;;;26.20;75.20;;;;;;5011975;28;20511;-69
2023/06/08 11:58:13;;;;;;;11.70;10.70;;;26.20;75.60;;;;;;5040957;28;20464;-69
2023/06/08 12:00:40;;;;;;;11.37;10.27;;;26.30;76.20;;;;;;5046351;28;20916;-69
2023/06/08 12:03:13;;;;;;;11.60;10.47;;;26.40;76.10;;;;;;5033164;28;20433;-69
2023/06/08 12:05:40;;;;;;;11.70;10.70;;;26.30;75.10;;;;;;5031671;28;20815;-67
2023/06/08 12:08:15;;;;;;;10.90;9.90;;;26.30;75.20;;;;;;5031761;28;20454;-67
2023/06/08 12:10:43;;;;;;;12.00;10.80;;;26.30;75.10;;;;;;5035636;28;20453;-67
2023/06/08 12:13:11;;;;;;;11.37;10.50;;;26.30;75.00;;;;;;5040059;28;20869;-67
2023/06/08 12:15:41;;;;;;;12.13;11.00;;;26.30;74.40;;;;;;5032861;28;20465;-67
2023/06/08 12:18:19;;;;;;;10.67;9.70;;;26.30;74.10;;;;;;4995931;28;20388;-66
2023/06/08 12:20:51;;;;;;;11.20;10.37;;;26.30;73.80;;;;;;5042943;28;20528;-66
2023/06/08 12:23:20;;;;;;;11.23;10.17;;;26.30;74.00;;;;;;5035070;28;20418;-66
2023/06/08 12:25:48;;;;;;;10.80;9.90;;;26.40;74.50;;;;;;5051002;28;20438;-66
2023/06/08 12:28:19;;;;;;;11.60;10.50;;;26.40;74.50;;;;;;5020383;28;20468;-67
2023/06/08 12:30:47;;;;;;;10.30;9.30;;;26.40;74.30;;;;;;5030487;28;20859;-67
2023/06/08 12:33:17;;;;;;;11.80;10.90;;;26.50;74.70;;;;;;5034314;28;20457;-67
2023/06/08 12:35:44;;;;;;;13.30;12.07;;;26.50;73.60;;;;;;5043546;28;20454;-67
2023/06/08 12:38:12;;;;;;;11.63;10.73;;;26.50;73.90;;;;;;5032277;28;20400;-67
2023/06/08 12:40:47;;;;;;;16.80;10.60;;;26.50;73.50;;;;;;5001913;28;20466;-66
2023/06/08 12:43:18;;;;;;;11.10;10.20;;;26.60;73.50;;;;;;5011118;28;21014;-66
2023/06/08 12:45:48;;;;;;;11.27;10.30;;;26.60;74.10;;;;;;5011819;28;20435;-66
2023/06/08 12:48:19;;;;;;;11.20;10.30;;;26.60;72.70;;;;;;5013983;28;20404;-67
2023/06/08 12:50:45;;;;;;;11.67;10.63;;;26.70;72.90;;;;;;5038500;28;20513;-66
2023/06/08 12:53:11;;;;;;;13.60;10.17;;;26.70;72.80;;;;;;5016064;28;20419;-67
2023/06/08 12:55:37;;;;;;;10.77;9.77;;;26.70;72.50;;;;;;5033459;28;20493;-67
2023/06/08 12:58:08;;;;;;;12.27;11.10;;;26.70;73.20;;;;;;5014495;28;20439;-67
2023/06/08 13:00:36;;;;;;;10.37;9.50;;;26.80;73.70;;;;;;5014219;28;20439;-67
2023/06/08 13:03:06;;;;;;;11.50;10.50;;;26.90;73.40;;;;;;5035021;28;20470;-67
2023/06/08 13:05:32;;;;;;;10.80;9.70;;;26.90;73.20;;;;;;5020344;28;20447;-67
2023/06/08 13:08:10;;;;;;;11.43;10.43;;;26.90;71.70;;;;;;5029240;28;20438;-69
2023/06/08 13:10:44;;;;;;;11.27;10.37;;;26.90;71.50;;;;;;5051999;28;20516;-68
2023/06/08 13:13:12;;;;;;;10.67;9.93;;;27.00;70.60;;;;;;5046166;28;20447;-68
2023/06/08 13:15:38;;;;;;;10.97;10.10;;;27.10;70.30;;;;;;5041712;28;20458;-69
2023/06/08 13:18:07;;;;;;;11.50;10.70;;;27.20;71.30;;;;;;5033223;28;20431;-68
2023/06/08 13:20:37;;;;;;;11.10;10.30;;;27.20;71.80;;;;;;5050411;28;20426;-69
2023/06/08 13:23:06;;;;;;;11.33;10.23;;;27.30;70.70;;;;;;5050145;28;20982;-68
2023/06/08 13:25:34;;;;;;;10.30;9.60;;;27.20;69.70;;;;;;5036677;28;20465;-70
2023/06/08 13:28:02;;;;;;;11.17;10.17;;;27.40;80.90;;;;;;5032499;28;20427;-69
2023/06/08 13:30:28;;;;;;;10.90;10.00;;;27.30;70.20;;;;;;5014254;28;20404;-69
2023/06/08 13:32:59;;;;;;;10.70;10.00;;;27.20;69.30;;;;;;5014093;28;20940;-68
2023/06/08 13:35:28;;;;;;;13.43;11.23;;;27.30;69.20;;;;;;5044809;28;20450;-69
2023/06/08 13:37:58;;;;;;;11.77;10.77;;;27.20;69.90;;;;;;5025458;28;20873;-69
2023/06/08 13:40:31;;;;;;;10.10;9.30;;;27.40;69.60;;;;;;5050264;28;20433;-69
2023/06/08 13:42:58;;;;;;;10.50;9.83;;;27.50;69.30;;;;;;5034870;28;20483;-68
2023/06/08 13:45:29;;;;;;;11.27;9.50;;;27.50;68.90;;;;;;5031461;28;20451;-69
2023/06/08 13:47:57;;;;;;;11.63;10.60;;;27.50;69.60;;;;;;5031674;28;20469;-68
2023/06/08 13:50:27;;;;;;;10.77;9.97;;;27.60;69.70;;;;;;4997670;28;20420;-68
2023/06/08 13:52:58;;;;;;;11.20;9.90;;;27.60;70.10;;;;;;5031308;28;20461;-69
2023/06/08 13:55:25;;;;;;;10.63;9.63;;;27.70;69.40;;;;;;5038713;28;20457;-68
2023/06/08 13:57:56;;;;;;;10.30;9.50;;;27.80;70.10;;;;;;5049905;28;20464;-70
2023/06/08 14:00:25;;;;;;;10.00;9.30;;;28.00;69.60;;;;;;5052344;28;20791;-70
2023/06/08 14:02:51;;;;;;;10.40;9.60;;;28.10;68.30;;;;;;5037671;28;20511;-70
2023/06/08 14:05:20;;;;;;;10.20;9.30;;;28.10;67.20;;;;;;5041521;28;20824;-72
2023/06/08 14:07:47;;;;;;;10.83;9.87;;;28.20;67.00;;;;;;5021830;28;20818;-69
2023/06/08 14:10:16;;;;;;;11.37;10.47;;;28.20;65.70;;;;;;5023887;28;20438;-69
2023/06/08 14:12:46;;;;;;;12.10;11.20;;;28.30;65.60;;;;;;5051011;28;20457;-69
2023/06/08 14:15:12;;;;;;;11.93;11.03;;;28.30;66.20;;;;;;5036826;28;20442;-68
2023/06/08 14:17:40;;;;;;;10.47;9.70;;;28.30;66.00;;;;;;5036747;28;20418;-68
2023/06/08 14:20:09;;;;;;;11.43;10.33;;;28.20;66.50;;;;;;5036764;28;20537;-68
2023/06/08 14:22:38;;;;;;;11.47;10.67;;;28.30;66.00;;;;;;5017103;28;20456;-68
2023/06/08 14:25:04;;;;;;;10.83;9.83;;;28.40;65.70;;;;;;5053597;28;20480;-67
2023/06/08 14:27:33;;;;;;;9.97;9.30;;;28.50;65.20;;;;;;5033576;28;20447;-68
2023/06/08 14:29:59;;;;;;;10.20;9.40;;;28.50;65.50;;;;;;5034266;28;20382;-68
2023/06/08 14:32:27;;;;;;;12.17;9.80;;;28.60;64.80;;;;;;5048059;28;20437;-68
2023/06/08 14:34:53;;;;;;;11.03;10.03;;;28.70;64.60;;;;;;5052835;28;20442;-68
2023/06/08 14:37:19;;;;;;;11.60;10.10;;;28.70;64.00;;;;;;5023061;28;20458;-68
2023/06/08 14:39:48;;;;;;;10.20;9.23;;;28.80;64.30;;;;;;5013098;28;20415;-68
2023/06/08 14:42:16;;;;;;;10.97;10.17;;;28.80;63.50;;;;;;5045385;28;20793;-68
2023/06/08 14:44:42;;;;;;;11.03;10.23;;;28.90;64.20;;;;;;5053593;28;20441;-68
2023/06/08 14:47:08;;;;;;;10.97;10.07;;;28.90;63.80;;;;;;5035551;28;20224;-68
2023/06/08 14:49:37;;;;;;;10.27;9.37;;;29.00;62.20;;;;;;5030077;28;20435;-66
2023/06/08 14:52:06;;;;;;;10.20;9.50;;;29.00;61.40;;;;;;5011854;28;20945;-67
2023/06/08 14:54:34;;;;;;;12.00;9.93;;;29.10;61.90;;;;;;4998334;28;20443;-67
2023/06/08 14:57:01;;;;;;;11.07;9.97;;;29.10;61.60;;;;;;5034680;28;20494;-66
2023/06/08 14:59:30;;;;;;;10.40;9.50;;;29.20;62.70;;;;;;5010940;28;20490;-67
2023/06/08 15:01:56;;;;;;;11.37;10.27;;;29.30;62.60;;;;;;5035311;28;20528;-66
2023/06/08 15:04:24;;;;;;;10.33;9.63;;;29.40;61.40;;;;;;5129235;22;20493;-67
2023/06/08 15:06:52;;;;;;;9.53;8.63;;;29.60;60.90;;;;;;4987195;28;20821;-68
2023/06/08 15:09:18;;;;;;;10.70;9.70;;;29.80;60.00;;;;;;4977390;28;21038;-68
2023/06/08 15:11:46;;;;;;;9.70;9.00;;;30.00;59.90;;;;;;4975723;28;20926;-69
2023/06/08 15:14:17;;;;;;;9.70;8.90;;;30.30;59.20;;;;;;4974692;28;20404;-69
2023/06/08 15:16:43;;;;;;;9.17;8.40;;;30.50;58.40;;;;;;4967874;28;20446;-69
2023/06/08 15:19:12;;;;;;;9.00;8.30;;;30.80;58.20;;;;;;4936939;29;20493;-69
2023/06/08 15:21:38;;;;;;;9.70;9.00;;;31.00;57.00;;;;;;4960936;28;20797;-69
2023/06/08 15:24:04;;;;;;;10.37;9.47;;;31.10;56.80;;;;;;4932371;28;20500;-68
2023/06/08 15:26:33;;;;;;;9.47;8.63;;;31.20;56.00;;;;;;4967539;28;20638;-68
2023/06/08 15:28:59;;;;;;;10.10;9.30;;;31.70;55.80;;;;;;4954336;28;20419;-68
2023/06/08 15:31:25;;;;;;;8.83;8.20;;;32.20;54.80;;;;;;4962365;28;20978;-68
2023/06/08 15:33:55;;;;;;;9.20;8.40;;;32.60;53.70;;;;;;4973863;28;20174;-68
2023/06/08 15:36:21;;;;;;;9.80;8.83;;;33.00;52.70;;;;;;4956915;28;20738;-68
2023/06/08 15:38:49;;;;;;;8.67;7.97;;;33.30;51.80;;;;;;4973276;28;20796;-68
2023/06/08 15:41:16;;;;;;;8.47;7.77;;;33.90;51.20;;;;;;4967299;28;20438;-68
2023/06/08 15:43:42;;;;;;;8.70;7.90;;;34.40;50.00;;;;;;4957492;28;20428;-68
2023/06/08 15:46:08;;;;;;;8.23;7.43;;;34.70;49.80;;;;;;4956959;28;20444;-68
2023/06/08 15:48:33;;;;;;;9.83;8.83;;;34.80;48.80;;;;;;4974363;28;20377;-68
2023/06/08 15:51:00;;;;;;;8.13;7.53;;;35.10;48.40;;;;;;4956912;28;20483;-68
2023/06/08 15:53:29;;;;;;;9.63;7.70;;;35.20;48.70;;;;;;4956860;28;20554;-69
2023/06/08 15:55:56;;;;;;;10.03;9.10;;;35.30;47.80;;;;;;4973409;28;20420;-68
2023/06/08 15:58:29;;;;;;;11.20;9.20;;;35.60;47.30;;;;;;4972595;28;20420;-69
2023/06/08 16:00:57;;;;;;;9.07;8.40;;;35.70;46.90;;;;;;4972728;28;20431;-68
2023/06/08 16:03:23;;;;;;;8.70;8.10;;;35.90;46.70;;;;;;4955418;28;20465;-68
2023/06/08 16:05:50;;;;;;;8.57;7.83;;;36.10;45.90;;;;;;4972007;28;20214;-69
2023/06/08 16:08:19;;;;;;;8.27;7.67;;;36.40;46.10;;;;;;4956627;28;20416;-69
2023/06/08 16:10:48;;;;;;;9.17;8.53;;;36.50;45.20;;;;;;4956797;28;20978;-69
2023/06/08 16:13:18;;;;;;;9.40;8.80;;;36.60;44.70;;;;;;4973795;28;20899;-68
2023/06/08 16:15:44;;;;;;;7.77;7.10;;;36.80;44.40;;;;;;4972310;28;20461;-68
2023/06/08 16:18:13;;;;;;;7.93;7.27;;;37.00;43.50;;;;;;4973322;28;20480;-69
2023/06/08 16:20:45;;;;;;;9.10;8.40;;;37.20;42.20;;;;;;4973735;28;20217;-68
2023/06/08 16:23:14;;;;;;;12.30;8.30;;;37.20;42.00;;;;;;4955311;28;20437;-69
2023/06/08 16:25:40;;;;;;;8.87;8.07;;;37.30;42.10;;;;;;4972762;28;20853;-69
2023/06/08 16:28:06;;;;;;;8.47;7.87;;;37.40;41.50;;;;;;4973912;28;20424;-69
2023/06/08 16:30:32;;;;;;;8.70;7.97;;;37.50;41.40;;;;;;4972776;28;20175;-68
2023/06/08 16:32:58;;;;;;;10.10;7.50;;;37.60;40.90;;;;;;4973607;28;20408;-67
2023/06/08 16:35:26;;;;;;;8.10;7.50;;;37.70;40.20;;;;;;4953365;28;20442;-68
2023/06/08 16:37:52;;;;;;;7.70;7.00;;;37.60;39.50;;;;;;4981173;28;20457;-69
2023/06/08 16:40:24;;;;;;;6.80;6.30;;;37.50;39.10;;;;;;4956855;28;20408;-68
2023/06/08 16:42:53;;;;;;;7.03;6.63;;;37.50;38.70;;;;;;4972291;28;20446;-68
2023/06/08 16:45:21;;;;;;;8.20;6.87;;;37.00;37.90;;;;;;4973038;28;20519;-68
2023/06/08 16:47:52;;;;;;;6.47;6.07;;;36.50;39.20;;;;;;4973502;28;20405;-69
2023/06/08 16:50:18;;;;;;;6.67;5.93;;;35.80;39.40;;;;;;4956495;28;20395;-68
2023/06/08 16:52:47;;;;;;;7.30;6.90;;;;;;;;;;4972343;28;20492;-68
2023/06/08 16:55:15;;;;;;;6.63;6.03;;;34.40;40.10;;;;;;4972944;28;20458;-68
2023/06/08 16:57:46;;;;;;;6.70;6.20;;;33.80;41.70;;;;;;4972203;28;20794;-68
2023/06/08 17:00:20;;;;;;;7.40;7.00;;;33.10;42.30;;;;;;4940626;28;20553;-68
2023/06/08 17:02:48;;;;;;;9.10;7.77;;;32.50;42.90;;;;;;4973459;28;20449;-68
2023/06/08 17:05:15;;;;;;;7.00;6.50;;;32.10;43.30;;;;;;4971774;28;20454;-69
2023/06/08 17:07:45;;;;;;;7.57;7.00;;;31.80;44.40;;;;;;4962731;28;20940;-70
2023/06/08 17:10:11;;;;;;;6.90;6.40;;;31.50;45.30;;;;;;4953975;28;20915;-69
2023/06/08 17:12:40;;;;;;;7.33;6.93;;;31.20;45.80;;;;;;4971369;28;20419;-70
2023/06/08 17:15:07;;;;;;;6.70;6.20;;;30.80;46.30;;;;;;4967898;28;20958;-70
2023/06/08 17:17:36;;;;;;;7.03;6.53;;;30.50;46.80;;;;;;4935062;29;20919;-70
2023/06/08 17:20:07;;;;;;;6.97;6.50;;;30.20;47.10;;;;;;4957634;28;20974;-70
2023/06/08 17:22:35;;;;;;;7.53;7.00;;;30.00;47.80;;;;;;4969515;28;20454;-70
2023/06/08 17:25:01;;;;;;;7.87;7.30;;;29.80;48.00;;;;;;4970509;28;20461;-70
2023/06/08 17:27:30;;;;;;;11.07;7.10;;;29.70;48.50;;;;;;4969880;28;20398;-70
2023/06/08 17:30:00;;;;;;;7.50;6.80;;;29.60;48.60;;;;;;4953411;28;20418;-72
2023/06/08 17:32:26;;;;;;;7.77;7.17;;;29.40;48.90;;;;;;4965609;28;20430;-70
2023/06/08 17:34:59;;;;;;;6.80;6.40;;;29.30;49.10;;;;;;4959276;28;20525;-69
2023/06/08 17:37:26;;;;;;;7.93;7.43;;;29.20;49.60;;;;;;4975073;28;20453;-70
2023/06/08 17:39:54;;;;;;;7.93;7.23;;;29.10;49.50;;;;;;4991553;28;20430;-68
2023/06/08 17:42:20;;;;;;;8.87;8.17;;;29.00;49.90;;;;;;4974893;28;20815;-70
2023/06/08 17:44:47;;;;;;;7.17;6.67;;;28.90;50.50;;;;;;4976064;28;20453;-71
2023/06/08 17:47:15;;;;;;;7.67;7.17;;;28.90;51.00;;;;;;4975843;28;20822;-70
2023/06/08 17:49:46;;;;;;;7.43;6.93;;;28.70;51.10;;;;;;4943392;28;20844;-71
2023/06/08 17:52:14;;;;;;;7.37;6.70;;;28.60;51.70;;;;;;4944303;28;20517;-70
2023/06/08 17:54:43;;;;;;;7.33;6.70;;;28.60;52.00;;;;;;4976532;28;20445;-70
2023/06/08 17:57:08;;;;;;;6.87;6.33;;;28.50;52.40;;;;;;4942945;28;20481;-70
2023/06/08 17:59:37;;;;;;;7.90;7.20;;;28.50;52.00;;;;;;4976534;28;20460;-70
2023/06/08 18:02:08;;;;;;;7.40;6.80;;;28.40;52.60;;;;;;4975285;28;20453;-70
2023/06/08 18:04:34;;;;;;;6.70;6.30;;;28.40;52.70;;;;;;4974044;28;20463;-69
2023/06/08 18:07:00;;;;;;;8.00;7.40;;;28.30;52.80;;;;;;4958289;28;20457;-69
2023/06/08 18:09:29;;;;;;;7.70;6.40;;;28.30;53.20;;;;;;4976085;28;20245;-69
2023/06/08 18:11:57;;;;;;;7.27;6.77;;;28.30;53.00;;;;;;4974259;28;20524;-69
2023/06/08 18:14:25;;;;;;;8.50;7.90;;;28.20;52.90;;;;;;4959383;28;20241;-69
2023/06/08 18:16:53;;;;;;;7.93;6.90;;;28.20;53.50;;;;;;4974448;28;21001;-69
2023/06/08 18:19:22;;;;;;;16.52;8.32;;;28.10;54.10;;;;;;4990238;28;20430;-69
2023/06/08 18:21:50;;;;;;;8.60;7.70;;;28.10;54.50;;;;;;4975403;28;20207;-76
2023/06/08 18:24:16;;;;;;;8.00;7.20;;;28.20;54.50;;;;;;4975128;28;20472;-74
2023/06/08 18:26:45;;;;;;;8.77;7.87;;;28.30;54.60;;;;;;4976146;28;20418;-74
2023/06/08 18:29:13;;;;;;;9.00;8.23;;;28.40;54.60;;;;;;4958584;28;20747;-73
2023/06/08 18:31:42;;;;;;;8.07;7.37;;;28.40;54.60;;;;;;4976167;28;20427;-76
2023/06/08 18:34:12;;;;;;;7.53;6.83;;;28.50;54.70;;;;;;4974577;28;20516;-74
2023/06/08 18:36:44;;;;;;;8.50;7.70;;;28.50;54.70;;;;;;4959044;28;20497;-73
2023/06/08 18:39:10;;;;;;;8.53;7.70;;;28.60;55.30;;;;;;4958754;28;20780;-74
2023/06/08 18:41:38;;;;;;;10.50;7.97;;;28.70;54.90;;;;;;4958641;28;20473;-73
2023/06/08 18:44:04;;;;;;;8.90;8.00;;;28.70;54.80;;;;;;4973797;28;20508;-73
2023/06/08 18:46:32;;;;;;;8.40;7.73;;;28.80;54.90;;;;;;4958569;28;20427;-74
2023/06/08 18:49:01;;;;;;;7.30;6.80;;;28.90;55.00;;;;;;4974809;28;20651;-74
2023/06/08 18:51:27;;;;;;;8.37;7.67;;;28.90;55.00;;;;;;4958314;28;20461;-73
2023/06/08 18:53:58;;;;;;;8.00;7.40;;;29.00;55.00;;;;;;4958409;28;20419;-74
2023/06/08 18:56:27;;;;;;;8.50;7.87;;;29.00;55.10;;;;;;4958351;28;20821;-74
2023/06/08 18:58:59;;;;;;;8.50;7.70;;;29.00;55.00;;;;;;4974518;28;20421;-74
2023/06/08 19:01:28;;;;;;;8.77;7.93;;;29.10;54.90;;;;;;4964038;28;20450;-75
2023/06/08 19:03:58;;;;;;;9.00;8.20;;;29.10;55.00;;;;;;4972268;28;21021;-74
2023/06/08 19:06:25;;;;;;;8.10;7.30;;;29.10;54.90;;;;;;4955632;28;20975;-74
2023/06/08 19:08:55;;;;;;;11.50;8.03;;;29.10;55.00;;;;;;4972782;28;20438;-74
2023/06/08 19:11:21;;;;;;;7.77;7.27;;;29.10;55.10;;;;;;4955740;28;20932;-74
2023/06/08 19:13:52;;;;;;;8.47;7.87;;;29.10;55.20;;;;;;4972914;28;20444;-74
2023/06/08 19:16:27;;;;;;;8.03;7.23;;;29.00;55.10;;;;;;4971867;28;20469;-74
2023/06/08 19:18:54;;;;;;;8.80;8.17;;;29.00;55.30;;;;;;4971874;28;20477;-74
2023/06/08 19:21:20;;;;;;;9.57;8.43;;;29.10;55.40;;;;;;4971783;28;20422;-74
2023/06/08 19:23:46;;;;;;;8.37;7.87;;;29.00;55.30;;;;;;4971623;28;20930;-74
2023/06/08 19:26:12;;;;;;;7.83;7.33;;;29.00;55.40;;;;;;4972163;28;20425;-74
2023/06/08 19:28:40;;;;;;;8.27;7.47;;;29.00;55.40;;;;;;4955719;28;20446;-74
2023/06/08 19:31:08;;;;;;;8.90;8.20;;;29.00;55.50;;;;;;4971531;28;20434;-75
2023/06/08 19:33:37;;;;;;;8.10;7.40;;;28.90;55.60;;;;;;4955755;28;20414;-75
2023/06/08 19:36:03;;;;;;;9.20;8.40;;;28.90;55.70;;;;;;4970776;28;20987;-74
2023/06/08 19:38:29;;;;;;;8.90;8.10;;;28.90;55.80;;;;;;4972175;28;20426;-74
2023/06/08 19:40:55;;;;;;;8.60;8.00;;;28.90;55.80;;;;;;4955625;28;20454;-74
2023/06/08 19:43:21;;;;;;;7.83;7.33;;;28.90;56.50;;;;;;4969383;28;20469;-75
2023/06/08 19:45:47;;;;;;;8.67;8.10;;;28.80;56.00;;;;;;4971007;28;20788;-74
2023/06/08 19:48:15;;;;;;;7.60;7.10;;;28.80;56.20;;;;;;4955006;28;20496;-74
2023/06/08 19:50:42;;;;;;;8.40;7.80;;;28.80;56.30;;;;;;4970921;28;20214;-74
2023/06/08 19:53:08;;;;;;;9.03;8.23;;;28.80;56.30;;;;;;4954518;28;20430;-74
2023/06/08 19:55:34;;;;;;;8.20;7.60;;;28.80;56.40;;;;;;4969715;28;20948;-74
2023/06/08 19:58:07;;;;;;;8.70;8.00;;;28.70;56.50;;;;;;4955111;28;20417;-74
2023/06/08 20:00:33;;;;;;;7.73;7.13;;;28.70;56.60;;;;;;4971940;28;20422;-74
2023/06/08 20:02:59;;;;;;;8.90;8.20;;;28.70;56.70;;;;;;4954412;28;20466;-74
2023/06/08 20:05:25;;;;;;;9.00;8.40;;;28.70;56.80;;;;;;4954607;28;20576;-74
2023/06/08 20:07:51;;;;;;;8.80;8.00;;;28.70;56.80;;;;;;4972105;28;20954;-74
2023/06/08 20:10:22;;;;;;;8.10;7.50;;;28.60;56.80;;;;;;4954984;28;20485;-74
2023/06/08 20:12:51;;;;;;;7.57;7.07;;;28.60;56.90;;;;;;4954818;28;20438;-75
2023/06/08 20:15:19;;;;;;;8.60;7.80;;;28.60;57.00;;;;;;4970606;28;20490;-74
2023/06/08 20:17:45;;;;;;;8.03;7.43;;;28.60;57.00;;;;;;4970827;28;20434;-75
2023/06/08 20:20:11;;;;;;;8.60;7.90;;;28.60;57.10;;;;;;4970904;28;20485;-74
2023/06/08 20:22:42;;;;;;;9.03;8.53;;;28.60;57.20;;;;;;4970229;28;20512;-74
2023/06/08 20:25:08;;;;;;;8.87;8.27;;;28.50;57.20;;;;;;4954018;28;20536;-73
2023/06/08 20:27:39;;;;;;;9.60;8.90;;;28.50;57.30;;;;;;4970905;28;20425;-73
2023/06/08 20:30:08;;;;;;;8.40;7.67;;;28.50;57.30;;;;;;4938543;28;20442;-73
2023/06/08 20:32:35;;;;;;;8.87;8.30;;;28.50;57.40;;;;;;4938449;28;20808;-73
2023/06/08 20:35:05;;;;;;;8.77;8.07;;;28.40;57.30;;;;;;4954216;28;20480;-73
2023/06/08 20:37:34;;;;;;;9.00;8.40;;;28.50;57.50;;;;;;4971453;28;20429;-74
2023/06/08 20:40:04;;;;;;;8.00;7.40;;;28.40;57.40;;;;;;4970447;28;20489;-73
2023/06/08 20:42:32;;;;;;;8.37;7.67;;;28.40;57.40;;;;;;4970103;28;20543;-73
2023/06/08 20:45:01;;;;;;;8.60;8.00;;;28.40;57.40;;;;;;4968402;28;20704;-74
2023/06/08 20:47:28;;;;;;;8.53;8.03;;;28.40;57.50;;;;;;4954472;28;20438;-74
2023/06/08 20:49:54;;;;;;;9.30;8.50;;;28.30;57.50;;;;;;4985937;28;20457;-73
2023/06/08 20:52:20;;;;;;;9.17;8.47;;;28.30;57.50;;;;;;4970541;28;21065;-73
2023/06/08 20:54:48;;;;;;;8.67;8.07;;;28.30;57.50;;;;;;4954541;28;20469;-73
2023/06/08 20:57:14;;;;;;;9.43;8.63;;;28.30;57.50;;;;;;4969799;28;20468;-73
2023/06/08 20:59:45;;;;;;;7.93;7.43;;;28.20;57.60;;;;;;4969910;28;20441;-73
2023/06/08 21:02:13;;;;;;;8.70;8.00;;;28.20;57.60;;;;;;4969714;28;20458;-73
2023/06/08 21:04:44;;;;;;;8.10;7.50;;;28.20;57.60;;;;;;4964572;28;21130;-73
2023/06/08 21:07:13;;;;;;;8.90;8.10;;;28.20;57.70;;;;;;4960092;28;20461;-73
2023/06/08 21:09:44;;;;;;;8.43;7.67;;;28.20;57.70;;;;;;4958417;28;20458;-73
2023/06/08 21:12:12;;;;;;;9.40;8.60;;;28.20;57.80;;;;;;4945087;28;20462;-74
2023/06/08 21:14:39;;;;;;;8.57;7.97;;;28.20;57.90;;;;;;4945105;28;20454;-73
2023/06/08 21:17:11;;;;;;;8.77;7.97;;;28.10;57.90;;;;;;4963909;28;20550;-73
2023/06/08 21:19:37;;;;;;;8.30;7.70;;;28.10;58.00;;;;;;4952257;28;20423;-73
2023/06/08 21:22:05;;;;;;;7.97;7.27;;;28.10;57.90;;;;;;4961922;28;20999;-73
2023/06/08 21:24:31;;;;;;;7.50;7.00;;;28.10;58.00;;;;;;4968850;28;20449;-72
2023/06/08 21:27:00;;;;;;;8.70;8.00;;;28.00;58.00;;;;;;4969870;28;20453;-73
2023/06/08 21:29:28;;;;;;;8.30;7.70;;;28.00;58.00;;;;;;4970023;28;20521;-74
2023/06/08 21:31:54;;;;;;;8.40;7.90;;;28.00;58.00;;;;;;4970221;28;20422;-71
2023/06/08 21:34:25;;;;;;;7.90;7.10;;;28.00;58.10;;;;;;4940678;29;20467;-69
2023/06/08 21:36:57;;;;;;;8.90;8.20;;;28.00;58.10;;;;;;4969797;28;20418;-69
2023/06/08 21:39:23;;;;;;;8.00;7.50;;;28.00;58.10;;;;;;4956014;28;20818;-69
2023/06/08 21:41:49;;;;;;;8.30;7.80;;;28.00;58.20;;;;;;4941367;29;20951;-69
2023/06/08 21:44:17;;;;;;;8.33;7.83;;;27.90;58.10;;;;;;4936797;29;20459;-69
2023/06/08 21:46:43;;;;;;;8.57;7.97;;;28.00;58.20;;;;;;4968377;28;20916;-69
2023/06/08 21:49:09;;;;;;;7.90;7.40;;;27.90;58.20;;;;;;4955937;28;20449;-69
2023/06/08 21:51:39;;;;;;;8.13;7.60;;;27.90;58.10;;;;;;4971770;28;20402;-69
2023/06/08 21:54:05;;;;;;;8.80;8.20;;;27.90;58.20;;;;;;4971814;28;20402;-69
2023/06/08 21:56:36;;;;;;;7.57;7.07;;;27.90;58.20;;;;;;4972686;28;20437;-69
2023/06/08 21:59:06;;;;;;;8.13;7.53;;;27.90;58.30;;;;;;4971903;28;20410;-69
2023/06/08 22:01:32;;;;;;;7.40;6.90;;;27.90;58.30;;;;;;4972768;28;20876;-70